Vuilleumier, Laurent (2010): Meteorological synoptical observations from station Payerne (2009-07) [dataset]. Swiss Meteorological Agency, Payerne, PANGAEA, https://doi.org/10.1594/PANGAEA.735249
Always quote citation above when using data! You can download the citation in several formats below.
Published: 2010-03-19 • DOI registered: 2010-04-16
Other version:
Vuilleumier, Laurent (2010): BSRN Station-to-archive file for station Payerne (2009-07) [dataset]. ftp://ftp.bsrn.awi.de/pay/pay0709.dat.gz
Project(s):
Coverage:
Latitude: 46.812300 * Longitude: 6.942200
Date/Time Start: 2009-07-01T00:00:00 * Date/Time End: 2009-07-31T21:00:00
Minimum Elevation: 491.0 m * Maximum Elevation: 491.0 m
Event(s):
PAY (Payerne) * Latitude: 46.812300 * Longitude: 6.942200 * Date/Time: 1992-09-01T00:00:00 * Elevation: 491.0 m * Location: Switzerland * Method/Device: Monitoring station (MONS) * Comment: BSRN station no: 21; Surface type: cultivated; Topography type: hilly, rural; Horizon: doi:10.1594/PANGAEA.947035; Station scientist: Laurent Vuilleumier (laurent.vuilleumier@meteoswiss.ch)
Parameter(s):
| # | Name | Short Name | Unit | Principal Investigator | Method/Device | Comment |
|---|---|---|---|---|---|---|
| 1 | DATE/TIME | Date/Time | Geocode | |||
| 2 | Wind direction | dd | deg | Vuilleumier, Laurent | Anemometer | |
| 3 | Wind speed | ff | m/s | Vuilleumier, Laurent | Anemometer | |
| 4 | Temperature, air | TTT | °C | Vuilleumier, Laurent | Thermometer | |
| 5 | Dew/frost point | TdTdTd | °C | Vuilleumier, Laurent | Hygrometer (HYGRO) | |
| 6 | Station pressure | PoPoPoPo | hPa | Vuilleumier, Laurent | Barometer (BARO) | |
| 7 | Pressure, atmospheric | PPPP | hPa | Vuilleumier, Laurent | Barometer (BARO) | |
| 8 | Code | Code | Vuilleumier, Laurent | YYGG9 iRixhVV Nddff 1SnTTT 2SnTdTdTd 3P0P0P0 4PPPP 7wwW1W2 8NhClCmCh 333 8NsChshs 8NsChshs 8NsChshs |
License:
Size:
1736 data points
Data
| 1 Date/Time | 2 dd [deg] | 3 ff [m/s] | 4 TTT [°C] | 5 TdTdTd [°C] | 6 PoPoPoPo [hPa] | 7 PPPP [hPa] | 8 Code |
|---|---|---|---|---|---|---|---|
| 2009-07-01T00:00 | 200 | 3 | 17.7 | 16.5 | 963 | 1020 | 01009 44/// /2003 10177 20165 39632 40198 7//// 8//// 333 8//// 8//// 8//// |
| 2009-07-01T03:00 | 190 | 2 | 15.5 | 14.7 | 963 | 1020 | 01039 44/// /1902 10155 20147 39628 40199 7//// 8//// 333 8//// 8//// 8//// |
| 2009-07-01T06:00 | 200 | 1 | 17.6 | 16.1 | 963 | 1020 | 01069 44/// /2001 10176 20161 39630 40196 7//// 8//// 333 8//// 8//// 8//// |
| 2009-07-01T09:00 | 40 | 3 | 22.8 | 17.3 | 963 | 1019 | 01099 44/// /0403 10228 20173 39630 40186 7//// 8//// 333 8//// 8//// 8//// |
| 2009-07-01T12:00 | 10 | 6 | 27.4 | 17.5 | 962 | 1017 | 01129 44/// /0106 10274 20175 39621 40167 7//// 8//// 333 8//// 8//// 8//// |
| 2009-07-01T15:00 | 350 | 5 | 24.4 | 15.7 | 962 | 1017 | 01159 44/// /3505 10244 20157 39619 40171 7//// 8//// 333 8//// 8//// 8//// |
| 2009-07-01T18:00 | 60 | 1 | 24.6 | 14.7 | 962 | 1017 | 01189 44/// /0601 10246 20147 39616 40167 7//// 8//// 333 8//// 8//// 8//// |
| 2009-07-01T21:00 | 130 | 1 | 18.9 | 16.6 | 962 | 1019 | 01219 44/// /1301 10189 20166 39624 40187 7//// 8//// 333 8//// 8//// 8//// |
| 2009-07-02T00:00 | 150 | 1 | 15.7 | 14.5 | 962 | 1019 | 02009 44/// /1501 10157 20145 39623 40193 7//// 8//// 333 8//// 8//// 8//// |
| 2009-07-02T03:00 | 160 | 2 | 13.7 | 12.9 | 962 | 1019 | 02039 44/// /1602 10137 20129 39617 40191 7//// 8//// 333 8//// 8//// 8//// |
| 2009-07-02T06:00 | 250 | 0 | 16.0 | 14.0 | 962 | 1019 | 02069 44/// /2500 10160 20140 39617 40186 7//// 8//// 333 8//// 8//// 8//// |
| 2009-07-02T09:00 | 340 | 1 | 21.8 | 15.2 | 962 | 1018 | 02099 44/// /3401 10218 20152 39619 40176 7//// 8//// 333 8//// 8//// 8//// |
| 2009-07-02T12:00 | 40 | 2 | 26.2 | 16.1 | 960 | 1015 | 02129 44/// /0402 10262 20161 39604 40151 7//// 8//// 333 8//// 8//// 8//// |
| 2009-07-02T15:00 | 350 | 5 | 25.6 | 14.6 | 959 | 1014 | 02159 44/// /3505 10256 20146 39590 40138 7//// 8//// 333 8//// 8//// 8//// |
| 2009-07-02T18:00 | 220 | 4 | 24.1 | 16.3 | 959 | 1014 | 02189 44/// /2204 10241 20163 39586 40137 7//// 8//// 333 8//// 8//// 8//// |
| 2009-07-02T21:00 | 210 | 2 | 18.7 | 16.2 | 960 | 1016 | 02219 44/// /2102 10187 20162 39597 40159 7//// 8//// 333 8//// 8//// 8//// |
| 2009-07-03T00:00 | 200 | 4 | 18.0 | 14.4 | 959 | 1015 | 03009 44/// /2004 10180 20144 39589 40152 7//// 8//// 333 8//// 8//// 8//// |
| 2009-07-03T03:00 | 170 | 1 | 16.4 | 14.7 | 959 | 1016 | 03039 44/// /1701 10164 20147 39594 40161 7//// 8//// 333 8//// 8//// 8//// |
| 2009-07-03T06:00 | 50 | 1 | 19.0 | 16.3 | 959 | 1015 | 03069 44/// /0501 10190 20163 39593 40154 7//// 8//// 333 8//// 8//// 8//// |
| 2009-07-03T09:00 | 260 | 2 | 23.6 | 16.2 | 960 | 1015 | 03099 44/// /2602 10236 20162 39598 40150 7//// 8//// 333 8//// 8//// 8//// |
| 2009-07-03T12:00 | 340 | 5 | 25.8 | 16.5 | 959 | 1014 | 03129 44/// /3405 10258 20165 39591 40138 7//// 8//// 333 8//// 8//// 8//// |
| 2009-07-03T15:00 | 360 | 6 | 27.2 | 16.0 | 958 | 1012 | 03159 44/// /3606 10272 20160 39579 40123 7//// 8//// 333 8//// 8//// 8//// |
| 2009-07-03T18:00 | 20 | 6 | 25.6 | 16.2 | 958 | 1012 | 03189 44/// /0206 10256 20162 39577 40124 7//// 8//// 333 8//// 8//// 8//// |
| 2009-07-03T21:00 | 60 | 2 | 20.7 | 15.9 | 959 | 1015 | 03219 44/// /0602 10207 20159 39588 40146 7//// 8//// 333 8//// 8//// 8//// |
| 2009-07-04T00:00 | 210 | 1 | 16.9 | 15.5 | 958 | 1015 | 04009 44/// /2101 10169 20155 39582 40147 7//// 8//// 333 8//// 8//// 8//// |
| 2009-07-04T03:00 | 220 | 2 | 14.8 | 14.1 | 958 | 1014 | 04039 44/// /2202 10148 20141 39576 40145 7//// 8//// 333 8//// 8//// 8//// |
| 2009-07-04T06:00 | 0 | 0 | 16.5 | 15.3 | 958 | 1014 | 04069 44/// /0000 10165 20153 39576 40142 7//// 8//// 333 8//// 8//// 8//// |
| 2009-07-04T09:00 | 30 | 2 | 21.6 | 16.4 | 958 | 1013 | 04099 44/// /0302 10216 20164 39576 40131 7//// 8//// 333 8//// 8//// 8//// |
| 2009-07-04T12:00 | 350 | 5 | 26.9 | 16.6 | 956 | 1011 | 04129 44/// /3505 10269 20166 39565 40109 7//// 8//// 333 8//// 8//// 8//// |
| 2009-07-04T15:00 | 270 | 5 | 24.6 | 16.1 | 956 | 1011 | 04159 44/// /2705 10246 20161 39558 40106 7//// 8//// 333 8//// 8//// 8//// |
| 2009-07-04T18:00 | 10 | 5 | 21.5 | 15.9 | 956 | 1012 | 04189 44/// /0105 10215 20159 39563 40117 7//// 8//// 333 8//// 8//// 8//// |
| 2009-07-04T21:00 | 270 | 0 | 18.1 | 15.4 | 957 | 1014 | 04219 44/// /2700 10181 20154 39573 40135 7//// 8//// 333 8//// 8//// 8//// |
| 2009-07-05T00:00 | 0 | 0 | 15.4 | 14.6 | 957 | 1014 | 05009 44/// /0000 10154 20146 39568 40135 7//// 8//// 333 8//// 8//// 8//// |
| 2009-07-05T03:00 | 170 | 2 | 15.0 | 14.2 | 956 | 1013 | 05039 44/// /1702 10150 20142 39560 40128 7//// 8//// 333 8//// 8//// 8//// |
| 2009-07-05T06:00 | 100 | 1 | 16.0 | 14.9 | 956 | 1013 | 05069 44/// /1001 10160 20149 39561 40127 7//// 8//// 333 8//// 8//// 8//// |
| 2009-07-05T09:00 | 50 | 2 | 22.6 | 17.0 | 956 | 1011 | 05099 44/// /0502 10226 20170 39558 40110 7//// 8//// 333 8//// 8//// 8//// |
| 2009-07-05T12:00 | 320 | 6 | 25.8 | 16.0 | 954 | 1009 | 05129 44/// /3206 10258 20160 39545 40090 7//// 8//// 333 8//// 8//// 8//// |
| 2009-07-05T15:00 | 320 | 5 | 24.6 | 16.2 | 954 | 1009 | 05159 44/// /3205 10246 20162 39539 40086 7//// 8//// 333 8//// 8//// 8//// |
| 2009-07-05T18:00 | 270 | 1 | 23.6 | 14.6 | 954 | 1009 | 05189 44/// /2701 10236 20146 39543 40092 7//// 8//// 333 8//// 8//// 8//// |
| 2009-07-05T21:00 | 200 | 6 | 18.0 | 15.3 | 955 | 1011 | 05219 44/// /2006 10180 20153 39553 40114 7//// 8//// 333 8//// 8//// 8//// |
| 2009-07-06T00:00 | 100 | 2 | 17.6 | 17.1 | 956 | 1012 | 06009 44/// /1002 10176 20171 39558 40120 7//// 8//// 333 8//// 8//// 8//// |
| 2009-07-06T03:00 | 200 | 2 | 17.0 | 16.3 | 956 | 1012 | 06039 44/// /2002 10170 20163 39555 40118 7//// 8//// 333 8//// 8//// 8//// |
| 2009-07-06T06:00 | 210 | 3 | 18.4 | 15.5 | 956 | 1012 | 06069 44/// /2103 10184 20155 39558 40119 7//// 8//// 333 8//// 8//// 8//// |
| 2009-07-06T09:00 | 320 | 3 | 20.4 | 13.4 | 956 | 1012 | 06099 44/// /3203 10204 20134 39563 40120 7//// 8//// 333 8//// 8//// 8//// |
| 2009-07-06T12:00 | 240 | 1 | 23.9 | 12.8 | 956 | 1010 | 06129 44/// /2401 10239 20128 39556 40105 7//// 8//// 333 8//// 8//// 8//// |
| 2009-07-06T15:00 | 290 | 8 | 24.7 | 11.0 | 954 | 1009 | 06159 44/// /2908 10247 20110 39544 40091 7//// 8//// 333 8//// 8//// 8//// |
| 2009-07-06T18:00 | 260 | 8 | 23.5 | 10.2 | 954 | 1009 | 06189 44/// /2608 10235 20102 39543 40092 7//// 8//// 333 8//// 8//// 8//// |
| 2009-07-06T21:00 | 220 | 4 | 17.8 | 9.2 | 956 | 1012 | 06219 44/// /2204 10178 20092 39555 40117 7//// 8//// 333 8//// 8//// 8//// |
| 2009-07-07T00:00 | 200 | 3 | 15.1 | 10.0 | 955 | 1012 | 07009 44/// /2003 10151 20100 39554 40121 7//// 8//// 333 8//// 8//// 8//// |
| 2009-07-07T03:00 | 200 | 3 | 16.1 | 11.2 | 955 | 1012 | 07039 44/// /2003 10161 20112 39550 40115 7//// 8//// 333 8//// 8//// 8//// |
| 2009-07-07T06:00 | 190 | 5 | 14.3 | 13.0 | 956 | 1012 | 07069 44/// /1905 10143 20130 39555 40124 7//// 8//// 333 8//// 8//// 8//// |
| 2009-07-07T09:00 | 210 | 4 | 16.5 | 13.3 | 956 | 1012 | 07099 44/// /2104 10165 20133 39559 40124 7//// 8//// 333 8//// 8//// 8//// |
| 2009-07-07T12:00 | 250 | 5 | 19.4 | 11.8 | 955 | 1011 | 07129 44/// /2505 10194 20118 39551 40109 7//// 8//// 333 8//// 8//// 8//// |
| 2009-07-07T15:00 | 260 | 8 | 19.1 | 10.3 | 954 | 1010 | 07159 44/// /2608 10191 20103 39543 40101 7//// 8//// 333 8//// 8//// 8//// |
| 2009-07-07T18:00 | 220 | 8 | 15.7 | 10.3 | 956 | 1012 | 07189 44/// /2208 10157 20103 39556 40122 7//// 8//// 333 8//// 8//// 8//// |
| 2009-07-07T21:00 | 210 | 7 | 14.1 | 10.8 | 957 | 1014 | 07219 44/// /2107 10141 20108 39570 40140 7//// 8//// 333 8//// 8//// 8//// |
| 2009-07-08T00:00 | 220 | 5 | 11.8 | 9.2 | 957 | 1015 | 08009 44/// /2205 10118 20092 39574 40149 7//// 8//// 333 8//// 8//// 8//// |
| 2009-07-08T03:00 | 190 | 9 | 11.3 | 10.0 | 958 | 1015 | 08039 44/// /1909 10113 20100 39576 40153 7//// 8//// 333 8//// 8//// 8//// |
| 2009-07-08T06:00 | 220 | 4 | 12.5 | 11.6 | 958 | 1016 | 08069 44/// /2204 10125 20116 39584 40159 7//// 8//// 333 8//// 8//// 8//// |
| 2009-07-08T09:00 | 230 | 5 | 14.8 | 11.1 | 960 | 1016 | 08099 44/// /2305 10148 20111 39595 40165 7//// 8//// 333 8//// 8//// 8//// |
| 2009-07-08T12:00 | 210 | 10 | 17.0 | 9.1 | 959 | 1016 | 08129 44/// /2110 10170 20091 39594 40160 7//// 8//// 333 8//// 8//// 8//// |
| 2009-07-08T15:00 | 210 | 10 | 19.8 | 9.4 | 959 | 1015 | 08159 44/// /2110 10198 20094 39588 40147 7//// 8//// 333 8//// 8//// 8//// |
| 2009-07-08T18:00 | 250 | 7 | 19.5 | 7.5 | 959 | 1015 | 08189 44/// /2507 10195 20075 39592 40152 7//// 8//// 333 8//// 8//// 8//// |
| 2009-07-08T21:00 | 210 | 4 | 14.6 | 8.7 | 960 | 1018 | 08219 44/// /2104 10146 20087 39605 40176 7//// 8//// 333 8//// 8//// 8//// |
| 2009-07-09T00:00 | 170 | 1 | 11.8 | 8.8 | 961 | 1018 | 09009 44/// /1701 10118 20088 39606 40183 7//// 8//// 333 8//// 8//// 8//// |
| 2009-07-09T03:00 | 230 | 2 | 10.5 | 8.5 | 960 | 1018 | 09039 44/// /2302 10105 20085 39602 40182 7//// 8//// 333 8//// 8//// 8//// |
| 2009-07-09T06:00 | 220 | 4 | 14.1 | 10.4 | 960 | 1018 | 09069 44/// /2204 10141 20104 39604 40176 7//// 8//// 333 8//// 8//// 8//// |
| 2009-07-09T09:00 | 210 | 4 | 17.0 | 11.4 | 961 | 1017 | 09099 44/// /2104 10170 20114 39607 40173 7//// 8//// 333 8//// 8//// 8//// |
| 2009-07-09T12:00 | 320 | 9 | 17.1 | 9.3 | 960 | 1017 | 09129 44/// /3209 10171 20093 39605 40171 7//// 8//// 333 8//// 8//// 8//// |
| 2009-07-09T15:00 | 320 | 8 | 18.9 | 10.1 | 960 | 1016 | 09159 44/// /3208 10189 20101 39595 40157 7//// 8//// 333 8//// 8//// 8//// |
| 2009-07-09T18:00 | 300 | 2 | 18.3 | 10.3 | 959 | 1016 | 09189 44/// /3002 10183 20103 39594 40157 7//// 8//// 333 8//// 8//// 8//// |
| 2009-07-09T21:00 | 210 | 1 | 15.3 | 8.8 | 961 | 1018 | 09219 44/// /2101 10153 20088 39610 40180 7//// 8//// 333 8//// 8//// 8//// |
| 2009-07-10T00:00 | 220 | 4 | 13.8 | 6.9 | 961 | 1018 | 10009 44/// /2204 10138 20069 39610 40183 7//// 8//// 333 8//// 8//// 8//// |
| 2009-07-10T03:00 | 200 | 5 | 12.5 | 7.8 | 961 | 1018 | 10039 44/// /2005 10125 20078 39607 40183 7//// 8//// 333 8//// 8//// 8//// |
| 2009-07-10T06:00 | 210 | 3 | 12.6 | 8.9 | 961 | 1018 | 10069 44/// /2103 10126 20089 39609 40185 7//// 8//// 333 8//// 8//// 8//// |
| 2009-07-10T09:00 | 200 | 6 | 18.6 | 9.3 | 961 | 1018 | 10099 44/// /2006 10186 20093 39613 40176 7//// 8//// 333 8//// 8//// 8//// |
| 2009-07-10T12:00 | 240 | 5 | 19.6 | 7.6 | 961 | 1017 | 10129 44/// /2405 10196 20076 39613 40174 7//// 8//// 333 8//// 8//// 8//// |
| 2009-07-10T15:00 | 250 | 7 | 19.8 | 5.3 | 961 | 1017 | 10159 44/// /2507 10198 20053 39608 40169 7//// 8//// 333 8//// 8//// 8//// |
| 2009-07-10T18:00 | 270 | 4 | 18.8 | 8.7 | 961 | 1017 | 10189 44/// /2704 10188 20087 39609 40172 7//// 8//// 333 8//// 8//// 8//// |
| 2009-07-10T21:00 | 190 | 4 | 15.5 | 9.5 | 962 | 1019 | 10219 44/// /1904 10155 20095 39620 40190 7//// 8//// 333 8//// 8//// 8//// |
| 2009-07-11T00:00 | 230 | 2 | 13.6 | 9.6 | 962 | 1019 | 11009 44/// /2302 10136 20096 39620 40194 7//// 8//// 333 8//// 8//// 8//// |
| 2009-07-11T03:00 | 210 | 3 | 12.8 | 9.7 | 962 | 1020 | 11039 44/// /2103 10128 20097 39620 40196 7//// 8//// 333 8//// 8//// 8//// |
| 2009-07-11T06:00 | 220 | 2 | 13.3 | 9.5 | 962 | 1019 | 11069 44/// /2202 10133 20095 39616 40191 7//// 8//// 333 8//// 8//// 8//// |
| 2009-07-11T09:00 | 270 | 3 | 16.9 | 7.5 | 962 | 1019 | 11099 44/// /2703 10169 20075 39620 40187 7//// 8//// 333 8//// 8//// 8//// |
| 2009-07-11T12:00 | 220 | 4 | 20.0 | 7.5 | 962 | 1018 | 11129 44/// /2204 10200 20075 39615 40176 7//// 8//// 333 8//// 8//// 8//// |
| 2009-07-11T15:00 | 270 | 2 | 21.3 | 7.7 | 960 | 1016 | 11159 44/// /2702 10213 20077 39605 40162 7//// 8//// 333 8//// 8//// 8//// |
| 2009-07-11T18:00 | 20 | 3 | 21.1 | 9.5 | 960 | 1016 | 11189 44/// /0203 10211 20095 39600 40157 7//// 8//// 333 8//// 8//// 8//// |
| 2009-07-11T21:00 | 20 | 0 | 15.7 | 10.4 | 960 | 1017 | 11219 44/// /0200 10157 20104 39604 40173 7//// 8//// 333 8//// 8//// 8//// |
| 2009-07-12T00:00 | 170 | 2 | 13.0 | 9.6 | 960 | 1018 | 12009 44/// /1702 10130 20096 39601 40176 7//// 8//// 333 8//// 8//// 8//// |
| 2009-07-12T03:00 | 190 | 4 | 13.1 | 10.4 | 959 | 1017 | 12039 44/// /1904 10131 20104 39592 40166 7//// 8//// 333 8//// 8//// 8//// |
| 2009-07-12T06:00 | 150 | 1 | 14.2 | 11.3 | 959 | 1017 | 12069 44/// /1501 10142 20113 39594 40166 7//// 8//// 333 8//// 8//// 8//// |
| 2009-07-12T09:00 | 310 | 3 | 18.5 | 12.2 | 959 | 1015 | 12099 44/// /3103 10185 20122 39588 40150 7//// 8//// 333 8//// 8//// 8//// |
| 2009-07-12T12:00 | 240 | 11 | 25.0 | 11.6 | 958 | 1012 | 12129 44/// /2411 10250 20116 39575 40123 7//// 8//// 333 8//// 8//// 8//// |
| 2009-07-12T15:00 | 230 | 9 | 25.2 | 10.3 | 957 | 1012 | 12159 44/// /2309 10252 20103 39572 40120 7//// 8//// 333 8//// 8//// 8//// |
| 2009-07-12T18:00 | 210 | 7 | 25.7 | 11.2 | 957 | 1011 | 12189 44/// /2107 10257 20112 39567 40113 7//// 8//// 333 8//// 8//// 8//// |
| 2009-07-12T21:00 | 80 | 3 | 20.6 | 13.8 | 958 | 1013 | 12219 44/// /0803 10206 20138 39575 40132 7//// 8//// 333 8//// 8//// 8//// |
| 2009-07-13T00:00 | 80 | 1 | 18.7 | 14.9 | 958 | 1014 | 13009 44/// /0801 10187 20149 39583 40144 7//// 8//// 333 8//// 8//// 8//// |
| 2009-07-13T03:00 | 210 | 2 | 16.3 | 14.6 | 958 | 1015 | 13039 44/// /2102 10163 20146 39585 40152 7//// 8//// 333 8//// 8//// 8//// |
| 2009-07-13T06:00 | 290 | 1 | 17.5 | 15.5 | 959 | 1015 | 13069 44/// /2901 10175 20155 39587 40151 7//// 8//// 333 8//// 8//// 8//// |
| 2009-07-13T09:00 | 10 | 3 | 19.8 | 16.1 | 959 | 1014 | 13099 44/// /0103 10198 20161 39586 40145 7//// 8//// 333 8//// 8//// 8//// |
| 2009-07-13T12:00 | 60 | 4 | 26.0 | 16.2 | 957 | 1012 | 13129 44/// /0604 10260 20162 39571 40117 7//// 8//// 333 8//// 8//// 8//// |
| 2009-07-13T15:00 | 40 | 4 | 29.1 | 17.6 | 955 | 1009 | 13159 44/// /0404 10291 20176 39554 40093 7//// 8//// 333 8//// 8//// 8//// |
| 2009-07-13T18:00 | 310 | 3 | 27.4 | 17.7 | 955 | 1009 | 13189 44/// /3103 10274 20177 39551 40093 7//// 8//// 333 8//// 8//// 8//// |
| 2009-07-13T21:00 | 230 | 2 | 21.4 | 17.6 | 956 | 1012 | 13219 44/// /2302 10214 20176 39560 40115 7//// 8//// 333 8//// 8//// 8//// |
| 2009-07-14T00:00 | 210 | 2 | 18.3 | 16.6 | 955 | 1011 | 14009 44/// /2102 10183 20166 39553 40113 7//// 8//// 333 8//// 8//// 8//// |
| 2009-07-14T03:00 | 90 | 3 | 18.5 | 16.8 | 956 | 1012 | 14039 44/// /0903 10185 20168 39563 40124 7//// 8//// 333 8//// 8//// 8//// |
| 2009-07-14T06:00 | 190 | 9 | 22.4 | 15.4 | 959 | 1014 | 14069 44/// /1909 10224 20154 39586 40140 7//// 8//// 333 8//// 8//// 8//// |
| 2009-07-14T09:00 | 230 | 4 | 24.2 | 13.3 | 959 | 1014 | 14099 44/// /2304 10242 20133 39587 40137 7//// 8//// 333 8//// 8//// 8//// |
| 2009-07-14T12:00 | 70 | 3 | 27.2 | 12.7 | 957 | 1012 | 14129 44/// /0703 10272 20127 39572 40116 7//// 8//// 333 8//// 8//// 8//// |
| 2009-07-14T15:00 | 100 | 6 | 28.1 | 13.7 | 956 | 1010 | 14159 44/// /1006 10281 20137 39564 40105 7//// 8//// 333 8//// 8//// 8//// |
| 2009-07-14T18:00 | 50 | 4 | 27.0 | 15.2 | 956 | 1011 | 14189 44/// /0504 10270 20152 39563 40106 7//// 8//// 333 8//// 8//// 8//// |
| 2009-07-14T21:00 | 110 | 2 | 20.7 | 18.5 | 959 | 1015 | 14219 44/// /1102 10207 20185 39588 40146 7//// 8//// 333 8//// 8//// 8//// |
| 2009-07-15T00:00 | 80 | 2 | 19.2 | 18.7 | 960 | 1016 | 15009 44/// /0802 10192 20187 39600 40161 7//// 8//// 333 8//// 8//// 8//// |
| 2009-07-15T03:00 | 80 | 4 | 19.0 | 18.3 | 961 | 1017 | 15039 44/// /0804 10190 20183 39610 40172 7//// 8//// 333 8//// 8//// 8//// |
| 2009-07-15T06:00 | 150 | 2 | 18.5 | 17.9 | 962 | 1019 | 15069 44/// /1502 10185 20179 39623 40187 7//// 8//// 333 8//// 8//// 8//// |
| 2009-07-15T09:00 | 50 | 2 | 20.8 | 17.8 | 963 | 1019 | 15099 44/// /0502 10208 20178 39629 40189 7//// 8//// 333 8//// 8//// 8//// |
| 2009-07-15T12:00 | 310 | 5 | 23.8 | 18.4 | 963 | 1018 | 15129 44/// /3105 10238 20184 39631 40185 7//// 8//// 333 8//// 8//// 8//// |
| 2009-07-15T15:00 | 320 | 3 | 26.4 | 18.7 | 962 | 1017 | 15159 44/// /3203 10264 20187 39625 40173 7//// 8//// 333 8//// 8//// 8//// |
| 2009-07-15T18:00 | 10 | 3 | 24.0 | 17.7 | 963 | 1019 | 15189 44/// /0103 10240 20177 39633 40186 7//// 8//// 333 8//// 8//// 8//// |
| 2009-07-15T21:00 | 170 | 1 | 21.4 | 18.8 | 965 | 1021 | 15219 44/// /1701 10214 20188 39646 40206 7//// 8//// 333 8//// 8//// 8//// |
| 2009-07-16T00:00 | 180 | 0 | 18.5 | 17.7 | 966 | 1022 | 16009 44/// /1800 10185 20177 39655 40221 7//// 8//// 333 8//// 8//// 8//// |
| 2009-07-16T03:00 | 200 | 1 | 18.0 | 17.5 | 966 | 1022 | 16039 44/// /2001 10180 20175 39657 40224 7//// 8//// 333 8//// 8//// 8//// |
| 2009-07-16T06:00 | 10 | 1 | 18.8 | 18.1 | 966 | 1023 | 16069 44/// /0101 10188 20181 39661 40227 7//// 8//// 333 8//// 8//// 8//// |
| 2009-07-16T09:00 | 20 | 3 | 22.4 | 18.8 | 966 | 1022 | 16099 44/// /0203 10224 20188 39659 40217 7//// 8//// 333 8//// 8//// 8//// |
| 2009-07-16T12:00 | 10 | 3 | 27.0 | 19.5 | 965 | 1019 | 16129 44/// /0103 10270 20195 39646 40194 7//// 8//// 333 8//// 8//// 8//// |
| 2009-07-16T15:00 | 30 | 3 | 29.3 | 18.6 | 963 | 1017 | 16159 44/// /0303 10293 20186 39627 40170 7//// 8//// 333 8//// 8//// 8//// |
| 2009-07-16T18:00 | 50 | 4 | 28.8 | 16.4 | 961 | 1015 | 16189 44/// /0504 10288 20164 39608 40150 7//// 8//// 333 8//// 8//// 8//// |
| 2009-07-16T21:00 | 130 | 1 | 21.5 | 17.5 | 959 | 1015 | 16219 44/// /1301 10215 20175 39594 40150 7//// 8//// 333 8//// 8//// 8//// |
| 2009-07-17T00:00 | 230 | 9 | 20.9 | 18.6 | 958 | 1014 | 17009 44/// /2309 10209 20186 39583 40140 7//// 8//// 333 8//// 8//// 8//// |
| 2009-07-17T03:00 | 210 | 8 | 18.1 | 16.6 | 960 | 1017 | 17039 44/// /2108 10181 20166 39604 40168 7//// 8//// 333 8//// 8//// 8//// |
| 2009-07-17T06:00 | 190 | 3 | 18.0 | 17.3 | 960 | 1016 | 17069 44/// /1903 10180 20173 39600 40164 7//// 8//// 333 8//// 8//// 8//// |
| 2009-07-17T09:00 | 240 | 1 | 18.3 | 15.9 | 958 | 1015 | 17099 44/// /2401 10183 20159 39585 40147 7//// 8//// 333 8//// 8//// 8//// |
| 2009-07-17T12:00 | 320 | 6 | 19.5 | 15.3 | 957 | 1012 | 17129 44/// /3206 10195 20153 39566 40125 7//// 8//// 333 8//// 8//// 8//// |
| 2009-07-17T15:00 | 220 | 2 | 14.8 | 12.7 | 957 | 1014 | 17159 44/// /2202 10148 20127 39566 40135 7//// 8//// 333 8//// 8//// 8//// |
| 2009-07-17T18:00 | 230 | 5 | 13.8 | 12.6 | 958 | 1015 | 17189 44/// /2305 10138 20126 39582 40154 7//// 8//// 333 8//// 8//// 8//// |
| 2009-07-17T21:00 | 210 | 6 | 12.4 | 11.1 | 959 | 1017 | 17219 44/// /2106 10124 20111 39591 40166 7//// 8//// 333 8//// 8//// 8//// |
| 2009-07-18T00:00 | 210 | 4 | 11.5 | 10.0 | 960 | 1018 | 18009 44/// /2104 10115 20100 39599 40177 7//// 8//// 333 8//// 8//// 8//// |
| 2009-07-18T03:00 | 210 | 6 | 11.4 | 10.2 | 959 | 1017 | 18039 44/// /2106 10114 20102 39591 40168 7//// 8//// 333 8//// 8//// 8//// |
| 2009-07-18T06:00 | 210 | 7 | 11.4 | 10.1 | 959 | 1017 | 18069 44/// /2107 10114 20101 39594 40172 7//// 8//// 333 8//// 8//// 8//// |
| 2009-07-18T09:00 | 210 | 8 | 12.5 | 11.2 | 960 | 1018 | 18099 44/// /2108 10125 20112 39602 40178 7//// 8//// 333 8//// 8//// 8//// |
| 2009-07-18T12:00 | 240 | 9 | 14.5 | 11.6 | 962 | 1019 | 18129 44/// /2409 10145 20116 39621 40194 7//// 8//// 333 8//// 8//// 8//// |
| 2009-07-18T15:00 | 250 | 9 | 17.9 | 8.7 | 962 | 1019 | 18159 44/// /2509 10179 20087 39621 40186 7//// 8//// 333 8//// 8//// 8//// |
| 2009-07-18T18:00 | 220 | 5 | 15.6 | 9.3 | 963 | 1020 | 18189 44/// /2205 10156 20093 39627 40198 7//// 8//// 333 8//// 8//// 8//// |
| 2009-07-18T21:00 | 200 | 7 | 12.2 | 8.6 | 964 | 1021 | 18219 44/// /2007 10122 20086 39635 40213 7//// 8//// 333 8//// 8//// 8//// |
| 2009-07-19T00:00 | 220 | 4 | 13.1 | 8.6 | 963 | 1021 | 19009 44/// /2204 10131 20086 39630 40206 7//// 8//// 333 8//// 8//// 8//// |
| 2009-07-19T03:00 | 210 | 4 | 13.2 | 9.2 | 962 | 1020 | 19039 44/// /2104 10132 20092 39625 40201 7//// 8//// 333 8//// 8//// 8//// |
| 2009-07-19T06:00 | 210 | 7 | 13.6 | 9.2 | 963 | 1021 | 19069 44/// /2107 10136 20092 39631 40206 7//// 8//// 333 8//// 8//// 8//// |
| 2009-07-19T09:00 | 210 | 11 | 16.1 | 9.8 | 964 | 1020 | 19099 44/// /2111 10161 20098 39635 40205 7//// 8//// 333 8//// 8//// 8//// |
| 2009-07-19T12:00 | 240 | 11 | 20.6 | 10.7 | 963 | 1019 | 19129 44/// /2411 10206 20107 39633 40193 7//// 8//// 333 8//// 8//// 8//// |
| 2009-07-19T15:00 | 250 | 8 | 21.8 | 9.9 | 963 | 1019 | 19159 44/// /2508 10218 20099 39628 40186 7//// 8//// 333 8//// 8//// 8//// |
| 2009-07-19T18:00 | 270 | 8 | 20.4 | 8.6 | 963 | 1019 | 19189 44/// /2708 10204 20086 39631 40192 7//// 8//// 333 8//// 8//// 8//// |
| 2009-07-19T21:00 | 190 | 1 | 14.7 | 10.9 | 964 | 1022 | 19219 44/// /1901 10147 20109 39642 40215 7//// 8//// 333 8//// 8//// 8//// |
| 2009-07-20T00:00 | 210 | 3 | 15.5 | 10.5 | 964 | 1022 | 20009 44/// /2103 10155 20105 39645 40217 7//// 8//// 333 8//// 8//// 8//// |
| 2009-07-20T03:00 | 320 | 2 | 14.4 | 11.6 | 964 | 1022 | 20039 44/// /3202 10144 20116 39642 40216 7//// 8//// 333 8//// 8//// 8//// |
| 2009-07-20T06:00 | 140 | 1 | 15.2 | 12.3 | 964 | 1022 | 20069 44/// /1401 10152 20123 39644 40216 7//// 8//// 333 8//// 8//// 8//// |
| 2009-07-20T09:00 | 240 | 6 | 21.1 | 11.5 | 964 | 1020 | 20099 44/// /2406 10211 20115 39645 40205 7//// 8//// 333 8//// 8//// 8//// |
| 2009-07-20T12:00 | 240 | 7 | 23.9 | 11.2 | 964 | 1019 | 20129 44/// /2407 10239 20112 39637 40191 7//// 8//// 333 8//// 8//// 8//// |
| 2009-07-20T15:00 | 230 | 7 | 25.5 | 10.1 | 962 | 1018 | 20159 44/// /2307 10255 20101 39625 40175 7//// 8//// 333 8//// 8//// 8//// |
| 2009-07-20T18:00 | 250 | 6 | 25.2 | 10.5 | 961 | 1016 | 20189 44/// /2506 10252 20105 39612 40162 7//// 8//// 333 8//// 8//// 8//// |
| 2009-07-20T21:00 | 170 | 1 | 17.8 | 13.5 | 962 | 1018 | 20219 44/// /1701 10178 20135 39617 40182 7//// 8//// 333 8//// 8//// 8//// |
| 2009-07-21T00:00 | 210 | 1 | 16.5 | 12.2 | 962 | 1019 | 21009 44/// /2101 10165 20122 39618 40186 7//// 8//// 333 8//// 8//// 8//// |
| 2009-07-21T03:00 | 190 | 4 | 14.1 | 12.4 | 961 | 1019 | 21039 44/// /1904 10141 20124 39614 40187 7//// 8//// 333 8//// 8//// 8//// |
| 2009-07-21T06:00 | 220 | 1 | 16.1 | 12.5 | 961 | 1018 | 21069 44/// /2201 10161 20125 39611 40180 7//// 8//// 333 8//// 8//// 8//// |
| 2009-07-21T09:00 | 310 | 1 | 21.2 | 13.9 | 961 | 1016 | 21099 44/// /3101 10212 20139 39607 40165 7//// 8//// 333 8//// 8//// 8//// |
| 2009-07-21T12:00 | 270 | 3 | 27.2 | 14.3 | 960 | 1014 | 21129 44/// /2703 10272 20143 39597 40142 7//// 8//// 333 8//// 8//// 8//// |
| 2009-07-21T15:00 | 220 | 10 | 29.0 | 13.0 | 959 | 1013 | 21159 44/// /2210 10290 20130 39588 40129 7//// 8//// 333 8//// 8//// 8//// |
| 2009-07-21T18:00 | 230 | 4 | 27.4 | 14.6 | 958 | 1012 | 21189 44/// /2304 10274 20146 39576 40119 7//// 8//// 333 8//// 8//// 8//// |
| 2009-07-21T21:00 | 150 | 2 | 21.2 | 14.9 | 957 | 1013 | 21219 44/// /1502 10212 20149 39571 40127 7//// 8//// 333 8//// 8//// 8//// |
| 2009-07-22T00:00 | 210 | 5 | 18.6 | 14.5 | 957 | 1013 | 22009 44/// /2105 10186 20145 39570 40131 7//// 8//// 333 8//// 8//// 8//// |
| 2009-07-22T03:00 | 60 | 2 | 21.2 | 13.7 | 956 | 1012 | 22039 44/// /0602 10212 20137 39561 40116 7//// 8//// 333 8//// 8//// 8//// |
| 2009-07-22T06:00 | 160 | 2 | 19.0 | 14.8 | 957 | 1013 | 22069 44/// /1602 10190 20148 39571 40131 7//// 8//// 333 8//// 8//// 8//// |
| 2009-07-22T09:00 | 70 | 4 | 18.5 | 17.1 | 959 | 1015 | 22099 44/// /0704 10185 20171 39590 40152 7//// 8//// 333 8//// 8//// 8//// |
| 2009-07-22T12:00 | 10 | 5 | 22.1 | 16.3 | 958 | 1013 | 22129 44/// /0105 10221 20163 39577 40131 7//// 8//// 333 8//// 8//// 8//// |
| 2009-07-22T15:00 | 360 | 4 | 24.4 | 17.0 | 955 | 1010 | 22159 44/// /3604 10244 20170 39554 40102 7//// 8//// 333 8//// 8//// 8//// |
| 2009-07-22T18:00 | 70 | 1 | 23.2 | 16.8 | 954 | 1009 | 22189 44/// /0701 10232 20168 39537 40087 7//// 8//// 333 8//// 8//// 8//// |
| 2009-07-22T21:00 | 150 | 1 | 19.4 | 16.9 | 954 | 1009 | 22219 44/// /1501 10194 20169 39536 40093 7//// 8//// 333 8//// 8//// 8//// |
| 2009-07-23T00:00 | 180 | 1 | 18.2 | 17.3 | 952 | 1008 | 23009 44/// /1801 10182 20173 39525 40084 7//// 8//// 333 8//// 8//// 8//// |
| 2009-07-23T03:00 | 320 | 1 | 17.9 | 16.8 | 951 | 1007 | 23039 44/// /3201 10179 20168 39507 40066 7//// 8//// 333 8//// 8//// 8//// |
| 2009-07-23T06:00 | 180 | 3 | 17.9 | 16.8 | 951 | 1006 | 23069 44/// /1803 10179 20168 39506 40065 7//// 8//// 333 8//// 8//// 8//// |
| 2009-07-23T09:00 | 240 | 3 | 20.0 | 18.0 | 952 | 1008 | 23099 44/// /2403 10200 20180 39520 40075 7//// 8//// 333 8//// 8//// 8//// |
| 2009-07-23T12:00 | 240 | 9 | 25.5 | 15.2 | 953 | 1008 | 23129 44/// /2409 10255 20152 39534 40079 7//// 8//// 333 8//// 8//// 8//// |
| 2009-07-23T15:00 | 160 | 3 | 18.0 | 16.6 | 954 | 1010 | 23159 44/// /1603 10180 20166 39538 40098 7//// 8//// 333 8//// 8//// 8//// |
| 2009-07-23T18:00 | 230 | 3 | 19.5 | 17.9 | 957 | 1013 | 23189 44/// /2303 10195 20179 39569 40128 7//// 8//// 333 8//// 8//// 8//// |
| 2009-07-23T21:00 | 200 | 4 | 18.9 | 14.1 | 960 | 1016 | 23219 44/// /2004 10189 20141 39602 40164 7//// 8//// 333 8//// 8//// 8//// |
| 2009-07-24T00:00 | 190 | 3 | 16.6 | 12.0 | 961 | 1018 | 24009 44/// /1903 10166 20120 39610 40177 7//// 8//// 333 8//// 8//// 8//// |
| 2009-07-24T03:00 | 180 | 5 | 15.9 | 11.8 | 960 | 1017 | 24039 44/// /1805 10159 20118 39603 40171 7//// 8//// 333 8//// 8//// 8//// |
| 2009-07-24T06:00 | 90 | 1 | 15.1 | 13.4 | 960 | 1017 | 24069 44/// /0901 10151 20134 39602 40172 7//// 8//// 333 8//// 8//// 8//// |
| 2009-07-24T09:00 | 340 | 1 | 21.0 | 12.0 | 960 | 1016 | 24099 44/// /3401 10210 20120 39603 40161 7//// 8//// 333 8//// 8//// 8//// |
| 2009-07-24T12:00 | 40 | 2 | 24.1 | 13.9 | 960 | 1015 | 24129 44/// /0402 10241 20139 39596 40147 7//// 8//// 333 8//// 8//// 8//// |
| 2009-07-24T15:00 | 80 | 2 | 18.8 | 15.8 | 960 | 1017 | 24159 44/// /0802 10188 20158 39604 40166 7//// 8//// 333 8//// 8//// 8//// |
| 2009-07-24T18:00 | 200 | 3 | 17.2 | 15.5 | 963 | 1019 | 24189 44/// /2003 10172 20155 39626 40193 7//// 8//// 333 8//// 8//// 8//// |
| 2009-07-24T21:00 | 210 | 6 | 16.4 | 13.4 | 965 | 1022 | 24219 44/// /2106 10164 20134 39652 40222 7//// 8//// 333 8//// 8//// 8//// |
| 2009-07-25T00:00 | 220 | 6 | 15.2 | 10.6 | 966 | 1023 | 25009 44/// /2206 10152 20106 39661 40234 7//// 8//// 333 8//// 8//// 8//// |
| 2009-07-25T03:00 | 200 | 6 | 13.5 | 9.8 | 966 | 1024 | 25039 44/// /2006 10135 20098 39665 40242 7//// 8//// 333 8//// 8//// 8//// |
| 2009-07-25T06:00 | 230 | 3 | 13.9 | 11.1 | 967 | 1025 | 25069 44/// /2303 10139 20111 39672 40249 7//// 8//// 333 8//// 8//// 8//// |
| 2009-07-25T09:00 | 220 | 5 | 18.9 | 10.6 | 968 | 1025 | 25099 44/// /2205 10189 20106 39679 40246 7//// 8//// 333 8//// 8//// 8//// |
| 2009-07-25T12:00 | 170 | 2 | 20.5 | 7.3 | 968 | 1024 | 25129 44/// /1702 10205 20073 39681 40244 7//// 8//// 333 8//// 8//// 8//// |
| 2009-07-25T15:00 | 220 | 1 | 22.0 | 10.6 | 968 | 1024 | 25159 44/// /2201 10220 20106 39676 40236 7//// 8//// 333 8//// 8//// 8//// |
| 2009-07-25T18:00 | 340 | 6 | 21.1 | 9.0 | 967 | 1024 | 25189 44/// /3406 10211 20090 39674 40236 7//// 8//// 333 8//// 8//// 8//// |
| 2009-07-25T21:00 | 70 | 2 | 16.3 | 10.7 | 968 | 1025 | 25219 44/// /0702 10163 20107 39680 40252 7//// 8//// 333 8//// 8//// 8//// |
| 2009-07-26T00:00 | 300 | 0 | 12.2 | 10.6 | 968 | 1026 | 26009 44/// /3000 10122 20106 39679 40260 7//// 8//// 333 8//// 8//// 8//// |
| 2009-07-26T03:00 | 0 | 0 | 10.2 | 9.8 | 967 | 1025 | 26039 44/// /0000 10102 20098 39668 40253 7//// 8//// 333 8//// 8//// 8//// |
| 2009-07-26T06:00 | 190 | 1 | 12.0 | 10.8 | 966 | 1024 | 26069 44/// /1901 10120 20108 39662 40242 7//// 8//// 333 8//// 8//// 8//// |
| 2009-07-26T09:00 | 20 | 3 | 18.3 | 11.9 | 966 | 1023 | 26099 44/// /0203 10183 20119 39659 40226 7//// 8//// 333 8//// 8//// 8//// |
| 2009-07-26T12:00 | 240 | 1 | 21.8 | 12.6 | 965 | 1021 | 26129 44/// /2401 10218 20126 39648 40207 7//// 8//// 333 8//// 8//// 8//// |
| 2009-07-26T15:00 | 50 | 2 | 24.7 | 10.9 | 963 | 1019 | 26159 44/// /0502 10247 20109 39634 40186 7//// 8//// 333 8//// 8//// 8//// |
| 2009-07-26T18:00 | 360 | 4 | 23.1 | 10.6 | 962 | 1018 | 26189 44/// /3604 10231 20106 39622 40177 7//// 8//// 333 8//// 8//// 8//// |
| 2009-07-26T21:00 | 200 | 1 | 15.5 | 12.0 | 962 | 1019 | 26219 44/// /2001 10155 20120 39621 40191 7//// 8//// 333 8//// 8//// 8//// |
| 2009-07-27T00:00 | 190 | 1 | 12.6 | 10.5 | 962 | 1019 | 27009 44/// /1901 10126 20105 39618 40194 7//// 8//// 333 8//// 8//// 8//// |
| 2009-07-27T03:00 | 160 | 0 | 11.0 | 9.2 | 961 | 1019 | 27039 44/// /1600 10110 20092 39607 40186 7//// 8//// 333 8//// 8//// 8//// |
| 2009-07-27T06:00 | 80 | 1 | 12.8 | 10.6 | 960 | 1018 | 27069 44/// /0801 10128 20106 39603 40178 7//// 8//// 333 8//// 8//// 8//// |
| 2009-07-27T09:00 | 40 | 2 | 20.3 | 12.9 | 960 | 1015 | 27099 44/// /0402 10203 20129 39595 40154 7//// 8//// 333 8//// 8//// 8//// |
| 2009-07-27T12:00 | 170 | 3 | 25.6 | 13.8 | 958 | 1013 | 27129 44/// /1703 10256 20138 39581 40128 7//// 8//// 333 8//// 8//// 8//// |
| 2009-07-27T15:00 | 120 | 4 | 25.2 | 15.5 | 957 | 1012 | 27159 44/// /1204 10252 20155 39573 40121 7//// 8//// 333 8//// 8//// 8//// |
| 2009-07-27T18:00 | 240 | 8 | 25.8 | 13.5 | 958 | 1013 | 27189 44/// /2408 10258 20135 39582 40129 7//// 8//// 333 8//// 8//// 8//// |
| 2009-07-27T21:00 | 240 | 2 | 18.3 | 17.4 | 961 | 1018 | 27219 44/// /2402 10183 20174 39611 40175 7//// 8//// 333 8//// 8//// 8//// |
| 2009-07-28T00:00 | 200 | 5 | 16.9 | 14.4 | 964 | 1021 | 28009 44/// /2005 10169 20144 39642 40211 7//// 8//// 333 8//// 8//// 8//// |
| 2009-07-28T03:00 | 160 | 2 | 13.8 | 13.2 | 964 | 1022 | 28039 44/// /1602 10138 20132 39645 40220 7//// 8//// 333 8//// 8//// 8//// |
| 2009-07-28T06:00 | 200 | 2 | 14.5 | 13.3 | 965 | 1022 | 28069 44/// /2002 10145 20133 39648 40222 7//// 8//// 333 8//// 8//// 8//// |
| 2009-07-28T09:00 | 80 | 3 | 19.4 | 12.3 | 965 | 1021 | 28099 44/// /0803 10194 20123 39648 40212 7//// 8//// 333 8//// 8//// 8//// |
| 2009-07-28T12:00 | 60 | 4 | 22.7 | 12.1 | 964 | 1020 | 28129 44/// /0604 10227 20121 39641 40198 7//// 8//// 333 8//// 8//// 8//// |
| 2009-07-28T15:00 | 0 | 2 | 24.0 | 12.0 | 963 | 1019 | 28159 44/// /0002 10240 20120 39633 40186 7//// 8//// 333 8//// 8//// 8//// |
| 2009-07-28T18:00 | 40 | 3 | 23.5 | 12.0 | 963 | 1018 | 28189 44/// /0403 10235 20120 39627 40181 7//// 8//// 333 8//// 8//// 8//// |
| 2009-07-28T21:00 | 280 | 1 | 17.4 | 14.1 | 964 | 1020 | 28219 44/// /2801 10174 20141 39636 40203 7//// 8//// 333 8//// 8//// 8//// |
| 2009-07-29T00:00 | 200 | 1 | 13.7 | 12.8 | 964 | 1021 | 29009 44/// /2001 10137 20128 39638 40213 7//// 8//// 333 8//// 8//// 8//// |
| 2009-07-29T03:00 | 190 | 2 | 12.8 | 12.1 | 963 | 1021 | 29039 44/// /1902 10128 20121 39634 40211 7//// 8//// 333 8//// 8//// 8//// |
| 2009-07-29T06:00 | 190 | 1 | 14.5 | 13.0 | 964 | 1021 | 29069 44/// /1901 10145 20130 39636 40209 7//// 8//// 333 8//// 8//// 8//// |
| 2009-07-29T09:00 | 10 | 1 | 19.6 | 14.6 | 963 | 1019 | 29099 44/// /0101 10196 20146 39632 40194 7//// 8//// 333 8//// 8//// 8//// |
| 2009-07-29T12:00 | 10 | 2 | 25.0 | 16.1 | 962 | 1017 | 29129 44/// /0102 10250 20161 39617 40168 7//// 8//// 333 8//// 8//// 8//// |
| 2009-07-29T15:00 | 340 | 3 | 27.9 | 16.1 | 960 | 1014 | 29159 44/// /3403 10279 20161 39601 40145 7//// 8//// 333 8//// 8//// 8//// |
| 2009-07-29T18:00 | 200 | 3 | 27.4 | 14.0 | 960 | 1014 | 29189 44/// /2003 10274 20140 39596 40141 7//// 8//// 333 8//// 8//// 8//// |
| 2009-07-29T21:00 | 220 | 3 | 19.2 | 13.9 | 960 | 1016 | 29219 44/// /2203 10192 20139 39597 40158 7//// 8//// 333 8//// 8//// 8//// |
| 2009-07-30T00:00 | 190 | 6 | 18.6 | 11.1 | 961 | 1017 | 30009 44/// /1906 10186 20111 39607 40170 7//// 8//// 333 8//// 8//// 8//// |
| 2009-07-30T03:00 | 240 | 5 | 22.0 | 14.8 | 963 | 1018 | 30039 44/// /2405 10220 20148 39628 40185 7//// 8//// 333 8//// 8//// 8//// |
| 2009-07-30T06:00 | 170 | 5 | 18.3 | 9.0 | 965 | 1022 | 30069 44/// /1705 10183 20090 39653 40219 7//// 8//// 333 8//// 8//// 8//// |
| 2009-07-30T09:00 | 260 | 5 | 20.1 | 11.8 | 966 | 1023 | 30099 44/// /2605 10201 20118 39665 40228 7//// 8//// 333 8//// 8//// 8//// |
| 2009-07-30T12:00 | 330 | 1 | 21.6 | 11.1 | 966 | 1022 | 30129 44/// /3301 10216 20111 39660 40220 7//// 8//// 333 8//// 8//// 8//// |
| 2009-07-30T15:00 | 40 | 5 | 21.8 | 11.4 | 966 | 1022 | 30159 44/// /0405 10218 20114 39658 40217 7//// 8//// 333 8//// 8//// 8//// |
| 2009-07-30T18:00 | 30 | 4 | 21.9 | 10.9 | 966 | 1022 | 30189 44/// /0304 10219 20109 39657 40216 7//// 8//// 333 8//// 8//// 8//// |
| 2009-07-30T21:00 | 70 | 2 | 16.4 | 12.2 | 967 | 1024 | 30219 44/// /0702 10164 20122 39667 40238 7//// 8//// 333 8//// 8//// 8//// |
| 2009-07-31T00:00 | 140 | 1 | 14.7 | 12.1 | 967 | 1024 | 31009 44/// /1401 10147 20121 39667 40242 7//// 8//// 333 8//// 8//// 8//// |
| 2009-07-31T03:00 | 0 | 0 | 13.4 | 11.7 | 966 | 1023 | 31039 44/// /0000 10134 20117 39657 40234 7//// 8//// 333 8//// 8//// 8//// |
| 2009-07-31T06:00 | 20 | 2 | 14.9 | 11.8 | 965 | 1022 | 31069 44/// /0202 10149 20118 39649 40222 7//// 8//// 333 8//// 8//// 8//// |
| 2009-07-31T09:00 | 40 | 5 | 17.6 | 11.2 | 964 | 1021 | 31099 44/// /0405 10176 20112 39640 40207 7//// 8//// 333 8//// 8//// 8//// |
| 2009-07-31T12:00 | 30 | 4 | 22.1 | 14.3 | 963 | 1019 | 31129 44/// /0304 10221 20143 39633 40190 7//// 8//// 333 8//// 8//// 8//// |
| 2009-07-31T15:00 | 30 | 5 | 23.0 | 13.9 | 962 | 1018 | 31159 44/// /0305 10230 20139 39622 40177 7//// 8//// 333 8//// 8//// 8//// |
| 2009-07-31T18:00 | 40 | 6 | 22.4 | 14.2 | 962 | 1017 | 31189 44/// /0406 10224 20142 39615 40171 7//// 8//// 333 8//// 8//// 8//// |
| 2009-07-31T21:00 | 180 | 1 | 17.2 | 14.7 | 962 | 1018 | 31219 44/// /1801 10172 20147 39618 40185 7//// 8//// 333 8//// 8//// 8//// |
